Weather History for KBPC - February, 2014

Change the Weather History Date:

Wednesday, February 26, 2014

  Actual Average (KBGD) Record (KBGD)
Temperature  
Mean Temperature 27 °F 44 °F  
Max Temperature 42 °F 57 °F 78 °F (1986)
Min Temperature 12 °F 32 °F 11 °F (2002)
Degree Days  
Heating Degree Days 38 21  
Month to date heating degree days 602  
Since 1 July heating degree days 2954  
Cooling Degree Days 0 0  
Month to date cooling degree days 0  
Year to date cooling degree days 0  
Moisture  
Dew Point 12 °F    
Average Humidity 56    
Maximum Humidity 85    
Minimum Humidity 31    
Precipitation  
Precipitation 0.00 in 0.01 in 0.57 in (1949)
Month to date precipitation 0.58  
Year to date precipitation 1.17  
Snow  
Snow 0.00 in - 3.50 in (1984)
Month to date snowfall  
Since 1 July snowfall  
Snow Depth -    
Sea Level Pressure  
Sea Level Pressure 30.21 in    
Wind  
Wind Speed 9 mph (West)    
Max Wind Speed 17 mph    
Max Gust Speed 26 mph    
Visibility 10 miles    
Events      
T = Trace of Precipitation, MM = Missing Value Source: NWS Daily Summary

Daily Weather History Graph

Daily Weather History Graph

Search for Another Location

Airport or City:

Trip Planner

Search our weather history database for the weather conditions in past years. The results will help you decide how hot, cold, wet, or windy it might be!

Date:

Astronomy

Feb. 26, 2014 Rise Set
Actual Time 7:18 AM CST 6:36 PM CST
Civil Twilight 6:52 AM CST 7:02 PM CST
Nautical Twilight 6:22 AM CST 7:31 PM CST
Astronomical Twilight 5:52 AM CST 8:01 PM CST
Moon 5:01 AM CST (2/26) 3:56 PM CST (2/26)
Length of Visible Light 12h 09m
Length of Day
11h 18m
Waning Crescent, 10% of the Moon is Illuminated
Feb 26
Waning Crescent
Mar 1
New
Mar 8
First Quarter
Mar 16
Full
Mar 23
Last Quarter

Hourly Weather History & Observations

Time (CST) Temp. Windchill Dew Point Humidity Pressure Visibility Wind Dir Wind Speed Gust Speed Precip Events Conditions
12:15 AM 21.2 °F 8.3 °F 14.0 °F 74% 30.41 in 10.0 mi North 13.8 mph 26.5 mph N/A   Scattered Clouds
12:35 AM 19.4 °F 4.5 °F 14.0 °F 80% 30.41 in 10.0 mi NNE 17.3 mph 23.0 mph N/A   Mostly Cloudy
12:55 AM 19.4 °F 5.0 °F 12.2 °F 74% 30.41 in 10.0 mi NNE 16.1 mph 23.0 mph N/A   Scattered Clouds
1:15 AM 19.4 °F 7.9 °F 10.4 °F 68% 30.41 in 10.0 mi NNE 10.4 mph 18.4 mph N/A   Mostly Cloudy
1:35 AM 19.4 °F 4.5 °F 8.6 °F 63% 30.39 in 10.0 mi North 17.3 mph - N/A   Overcast
1:55 AM 19.4 °F 5.5 °F 8.6 °F 63% 30.39 in 10.0 mi North 15.0 mph 20.7 mph N/A   Overcast
2:15 AM 19.4 °F 6.6 °F 8.6 °F 63% 30.39 in 10.0 mi NNE 12.7 mph - N/A   Overcast
2:35 AM 19.4 °F 8.6 °F 6.8 °F 58% 30.38 in 10.0 mi North 9.2 mph - N/A   Scattered Clouds
2:55 AM 19.4 °F 7.9 °F 6.8 °F 58% 30.38 in 10.0 mi NNE 10.4 mph - N/A   Scattered Clouds
3:15 AM 19.4 °F 7.9 °F 6.8 °F 58% 30.37 in 10.0 mi North 10.4 mph - N/A   Mostly Cloudy
3:35 AM 19.4 °F 7.9 °F 8.6 °F 63% 30.37 in 10.0 mi North 10.4 mph - N/A   Mostly Cloudy
3:55 AM 17.6 °F 5.7 °F 8.6 °F 68% 30.36 in 10.0 mi North 10.4 mph - N/A   Scattered Clouds
4:15 AM 17.6 °F 7.3 °F 8.6 °F 68% 30.36 in 10.0 mi North 8.1 mph - N/A   Clear
4:35 AM 17.6 °F 8.2 °F 8.6 °F 68% 30.36 in 10.0 mi North 6.9 mph - N/A   Clear
4:55 AM 15.8 °F 6.1 °F 8.6 °F 73% 30.35 in 10.0 mi North 6.9 mph - N/A   Clear
5:15 AM 15.8 °F 8.6 °F 8.6 °F 73% 30.36 in 10.0 mi North 4.6 mph - N/A   Clear
5:35 AM 14.0 °F 6.5 °F 8.6 °F 79% 30.35 in 10.0 mi North 4.6 mph - N/A   Clear
5:55 AM 14.0 °F 6.5 °F 8.6 °F 79% 30.35 in 10.0 mi NNW 4.6 mph - N/A   Clear
6:15 AM 14.0 °F 6.5 °F 8.6 °F 79% 30.33 in 10.0 mi NNW 4.6 mph - N/A   Clear
6:35 AM 14.0 °F 6.5 °F 8.6 °F 79% 30.33 in 10.0 mi NNW 4.6 mph - N/A   Clear
6:55 AM 14.0 °F 6.5 °F 8.6 °F 79% 30.33 in 10.0 mi WNW 4.6 mph - N/A   Clear
7:15 AM 12.2 °F 2.9 °F 6.8 °F 79% 30.33 in 10.0 mi West 5.8 mph - N/A   Clear
7:35 AM 12.2 °F 2.9 °F 8.6 °F 85% 30.32 in 10.0 mi WSW 5.8 mph - N/A   Clear
7:55 AM 14.0 °F 6.5 °F 8.6 °F 79% 30.31 in 10.0 mi WSW 4.6 mph - N/A   Clear
8:15 AM 15.8 °F 8.6 °F 8.6 °F 73% 30.30 in 10.0 mi WSW 4.6 mph - N/A   Clear
8:35 AM 17.6 °F 10.7 °F 8.6 °F 68% 30.30 in 10.0 mi WSW 4.6 mph - N/A   Clear
8:55 AM 19.4 °F 12.8 °F 8.6 °F 63% 30.30 in 10.0 mi West 4.6 mph - N/A   Clear
9:15 AM 19.4 °F 11.5 °F 8.6 °F 63% 30.29 in 10.0 mi West 5.8 mph - N/A   Clear
9:40 AM 21.2 °F 12.6 °F 8.6 °F 58% 30.29 in 10.0 mi West 6.9 mph - N/A   Clear
9:55 AM 21.2 °F 16.4 °F 8.6 °F 58% 30.28 in 10.0 mi NW 3.5 mph - N/A   Clear
10:15 AM 23.0 °F - 8.6 °F 54% 30.28 in 10.0 mi Calm Calm - N/A   Clear
10:35 AM 24.8 °F 17.9 °F 8.6 °F 50% 30.27 in 10.0 mi West 5.8 mph - N/A   Clear
10:55 AM 26.6 °F 21.2 °F 8.6 °F 47% 30.26 in 10.0 mi SW 4.6 mph - N/A   Clear
11:15 AM 28.4 °F - 8.6 °F 43% 30.25 in 10.0 mi Calm Calm - N/A   Clear
11:35 AM 28.4 °F 22.2 °F 8.6 °F 43% 30.24 in 10.0 mi WSW 5.8 mph - N/A   Clear
11:55 AM 30.2 °F 23.4 °F 8.6 °F 40% 30.23 in 10.0 mi SW 6.9 mph - N/A   Clear
12:15 PM 32.0 °F 26.4 °F 8.6 °F 38% 30.22 in 10.0 mi WSW 5.8 mph - N/A   Clear
12:35 PM 32.0 °F 28.7 °F 8.6 °F 38% 30.20 in 10.0 mi SSW 3.5 mph - N/A   Clear
12:55 PM 32.0 °F 27.5 °F 8.6 °F 38% 30.19 in 10.0 mi SW 4.6 mph - N/A   Clear
1:15 PM 33.8 °F 29.6 °F 10.4 °F 38% 30.17 in 10.0 mi WSW 4.6 mph - N/A   Clear
1:35 PM 35.6 °F - 10.4 °F 35% 30.15 in 10.0 mi Calm Calm - N/A   Clear
1:55 PM 35.6 °F - 10.4 °F 35% 30.13 in 10.0 mi Calm Calm - N/A   Clear
2:15 PM 37.4 °F 34.9 °F 12.2 °F 36% 30.12 in 10.0 mi West 3.5 mph - N/A   Clear
2:35 PM 37.4 °F - 12.2 °F 36% 30.11 in 10.0 mi Calm Calm - N/A   Clear
2:55 PM 39.2 °F 34.2 °F 12.2 °F 33% 30.10 in 10.0 mi West 6.9 mph - N/A   Clear
3:15 PM 41.0 °F - 14.0 °F 33% 30.09 in 10.0 mi Calm Calm - N/A   Clear
3:35 PM 41.0 °F 38.0 °F 14.0 °F 33% 30.08 in 10.0 mi SW 4.6 mph - N/A   Clear
3:55 PM 41.0 °F 37.1 °F 14.0 °F 33% 30.06 in 10.0 mi WNW 5.8 mph - N/A   Clear
4:15 PM 41.0 °F - 14.0 °F 33% 30.05 in 10.0 mi Calm Calm - N/A   Clear
4:35 PM 42.8 °F 38.6 °F 14.0 °F 31% 30.05 in 10.0 mi SW 6.9 mph - N/A   Clear
4:55 PM 42.8 °F 39.3 °F 15.8 °F 34% 30.04 in 10.0 mi SW 5.8 mph - N/A   Clear
5:15 PM 42.8 °F 39.3 °F 15.8 °F 34% 30.04 in 10.0 mi WSW 5.8 mph - N/A   Clear
5:35 PM 42.8 °F 39.3 °F 15.8 °F 34% 30.04 in 10.0 mi SW 5.8 mph - N/A   Clear
5:55 PM 42.8 °F 38.6 °F 15.8 °F 34% 30.04 in 10.0 mi WSW 6.9 mph - N/A   Clear
6:15 PM 41.0 °F 37.1 °F 17.6 °F 39% 30.04 in 10.0 mi SW 5.8 mph - N/A   Clear
6:35 PM 39.2 °F 37.0 °F 15.8 °F 39% 30.04 in 10.0 mi SSW 3.5 mph - N/A   Clear
6:55 PM 35.6 °F 30.7 °F 15.8 °F 44% 30.04 in 10.0 mi South 5.8 mph - N/A   Clear
7:15 PM 32.0 °F 25.6 °F 15.8 °F 51% 30.04 in 10.0 mi South 6.9 mph - N/A   Clear
7:35 PM 32.0 °F 24.8 °F 15.8 °F 51% 30.04 in 10.0 mi South 8.1 mph - N/A   Clear
7:55 PM 30.2 °F 23.4 °F 15.8 °F 55% 30.04 in 10.0 mi South 6.9 mph - N/A   Clear
8:15 PM 30.2 °F 22.6 °F 15.8 °F 55% 30.05 in 10.0 mi South 8.1 mph - N/A   Clear
8:35 PM 30.2 °F 21.9 °F 17.6 °F 60% 30.05 in 10.0 mi SSW 9.2 mph - N/A   Clear
8:55 PM 30.2 °F 23.4 °F 15.8 °F 55% 30.05 in 10.0 mi SSW 6.9 mph - N/A   Clear
9:15 PM 28.4 °F 21.2 °F 15.8 °F 59% 30.06 in 10.0 mi SSW 6.9 mph - N/A   Clear
9:35 PM 26.6 °F 22.6 °F 15.8 °F 64% 30.06 in 10.0 mi WSW 3.5 mph - N/A   Clear
9:55 PM 28.4 °F - 15.8 °F 59% 30.07 in 10.0 mi Calm Calm - N/A   Clear
10:15 PM 28.4 °F 24.6 °F 15.8 °F 59% 30.07 in 10.0 mi WSW 3.5 mph - N/A   Clear
10:35 PM 23.0 °F 15.8 °F 14.0 °F 68% 30.07 in 10.0 mi SW 5.8 mph - N/A   Clear
10:55 PM 24.8 °F 16.1 °F 14.0 °F 64% 30.06 in 10.0 mi SSW 8.1 mph - N/A   Clear
11:20 PM 28.4 °F 19.1 °F 17.6 °F 64% 30.05 in 10.0 mi SSW 10.4 mph - N/A   Clear
11:35 PM 30.2 °F 21.3 °F 17.6 °F 60% 30.05 in 10.0 mi SW 10.4 mph - N/A   Clear
11:55 PM 28.4 °F 19.7 °F 15.8 °F 59% 30.05 in 10.0 mi SW 9.2 mph - N/A   Clear